createdAt,value
2022-12-28T00:03:54.858Z,11.30
2022-12-28T00:08:55.011Z,11.30
2022-12-28T00:13:54.973Z,15.20
2022-12-28T00:23:57.988Z,12.70
2022-12-28T00:28:59.880Z,12.70
2022-12-28T00:33:54.907Z,11.40
2022-12-28T00:38:54.902Z,11.40
2022-12-28T00:43:54.895Z,10.40
2022-12-28T00:48:54.888Z,10.40
2022-12-28T00:53:54.953Z,12.40
2022-12-28T00:58:54.895Z,12.40
2022-12-28T01:03:55.016Z,14.70
2022-12-28T01:08:54.952Z,14.70
2022-12-28T01:13:56.194Z,13.00
2022-12-28T01:18:56.303Z,13.00
2022-12-28T01:23:54.935Z,15.70
2022-12-28T01:28:54.945Z,15.70
2022-12-28T01:33:55.121Z,17.00
2022-12-28T01:38:54.954Z,17.00
2022-12-28T01:43:55.080Z,14.90
2022-12-28T01:48:55.072Z,14.90
2022-12-28T01:53:55.064Z,12.70
2022-12-28T01:58:55.189Z,12.70
2022-12-28T02:03:55.027Z,17.00
2022-12-28T02:08:54.967Z,17.00
2022-12-28T02:13:55.092Z,16.00
2022-12-28T02:18:55.019Z,16.00
2022-12-28T02:23:54.999Z,17.80
2022-12-28T02:28:55.048Z,17.80
2022-12-28T02:33:54.965Z,17.40
2022-12-28T02:38:55.033Z,17.40
2022-12-28T02:43:54.959Z,17.10
2022-12-28T02:48:55.053Z,17.10
2022-12-28T02:53:54.966Z,15.50
2022-12-28T02:58:55.081Z,15.50
2022-12-28T03:03:55.003Z,14.00
2022-12-28T03:08:55.013Z,14.00
2022-12-28T03:13:55.005Z,15.60
2022-12-28T03:18:55.017Z,15.60
2022-12-28T03:23:54.992Z,14.40
2022-12-28T03:28:55.012Z,14.40
2022-12-28T03:33:55.009Z,13.60
2022-12-28T03:38:54.956Z,13.60
2022-12-28T03:43:55.074Z,14.00
2022-12-28T03:48:55.002Z,14.00
2022-12-28T03:53:55.000Z,13.90
2022-12-28T03:58:55.176Z,13.90
2022-12-28T04:03:55.010Z,12.70
2022-12-28T04:08:55.052Z,12.70
2022-12-28T04:13:55.071Z,12.50
2022-12-28T04:18:55.025Z,12.50
2022-12-28T04:23:54.969Z,12.00
2022-12-28T04:28:55.166Z,12.00
2022-12-28T04:33:54.986Z,13.10
2022-12-28T04:38:55.050Z,13.10
2022-12-28T04:43:55.014Z,12.00
2022-12-28T04:48:55.006Z,12.00
2022-12-28T04:53:55.050Z,16.30
2022-12-28T04:58:55.082Z,16.30
2022-12-28T05:03:58.092Z,13.50
2022-12-28T05:08:55.089Z,13.50
2022-12-28T05:13:55.021Z,12.20
2022-12-28T05:18:55.071Z,12.20
2022-12-28T05:23:55.411Z,11.40
2022-12-28T05:28:55.023Z,11.40
2022-12-28T05:33:55.056Z,15.40
2022-12-28T05:38:55.102Z,15.40
2022-12-28T05:43:55.087Z,16.30
2022-12-28T05:48:55.071Z,16.30
2022-12-28T05:53:55.108Z,15.60
2022-12-28T05:58:55.077Z,15.60
2022-12-28T06:03:57.111Z,14.10
2022-12-28T06:08:55.680Z,14.10
2022-12-28T06:13:55.069Z,13.60
2022-12-28T06:18:55.012Z,13.60
2022-12-28T06:23:55.084Z,12.40
2022-12-28T06:28:55.075Z,12.40
2022-12-28T06:33:55.018Z,16.30
2022-12-28T06:38:55.041Z,16.30
2022-12-28T06:43:55.073Z,13.70
2022-12-28T06:48:55.051Z,13.70
2022-12-28T06:53:55.093Z,15.00
2022-12-28T06:59:00.491Z,15.00
2022-12-28T07:03:55.027Z,15.50
2022-12-28T07:08:55.089Z,15.50
2022-12-28T07:13:56.074Z,17.50
2022-12-28T07:18:55.256Z,17.50
2022-12-28T07:23:55.148Z,19.70
2022-12-28T07:28:55.116Z,19.70
2022-12-28T07:33:55.112Z,26.80
2022-12-28T07:38:55.299Z,26.80
2022-12-28T07:43:55.089Z,20.80
2022-12-28T07:48:58.641Z,20.80
2022-12-28T07:53:55.067Z,17.80
2022-12-28T07:58:55.061Z,17.80
2022-12-28T08:03:55.154Z,17.80
2022-12-28T08:08:57.358Z,17.80
2022-12-28T08:13:55.120Z,19.50
2022-12-28T08:18:55.122Z,19.50
2022-12-28T08:23:57.347Z,17.30
2022-12-28T08:28:55.138Z,17.30
2022-12-28T08:33:55.112Z,16.20
2022-12-28T08:38:55.199Z,16.20
2022-12-28T08:43:55.077Z,20.50
2022-12-28T08:48:55.099Z,20.50
2022-12-28T08:53:55.088Z,21.30
2022-12-28T08:58:55.143Z,21.30
2022-12-28T09:03:55.382Z,20.10
2022-12-28T09:09:06.341Z,20.10
2022-12-28T09:13:56.135Z,19.70
2022-12-28T09:18:58.167Z,19.70
2022-12-28T09:23:58.266Z,18.30
2022-12-28T09:28:55.103Z,18.30
2022-12-28T09:34:34.477Z,21.20
2022-12-28T09:38:55.186Z,21.20
2022-12-28T09:43:55.440Z,19.80
2022-12-28T09:48:55.086Z,19.80
2022-12-28T09:53:55.102Z,23.60
2022-12-28T09:58:56.150Z,23.60
2022-12-28T10:03:55.144Z,20.80
2022-12-28T10:08:55.073Z,20.80
2022-12-28T10:13:55.874Z,18.70
2022-12-28T10:18:55.118Z,18.70
2022-12-28T10:24:30.119Z,14.90
2022-12-28T10:28:55.106Z,14.90
2022-12-28T10:33:55.150Z,16.20
2022-12-28T10:38:55.134Z,16.20
2022-12-28T10:44:29.247Z,15.00
2022-12-28T10:48:55.149Z,15.00
2022-12-28T10:53:55.127Z,14.70
2022-12-28T11:03:55.233Z,12.90
2022-12-28T11:08:55.256Z,12.90
2022-12-28T11:13:55.154Z,14.10
2022-12-28T11:18:55.163Z,14.10
2022-12-28T11:23:55.099Z,13.30
2022-12-28T11:28:55.500Z,13.30
2022-12-28T11:33:55.112Z,12.80
2022-12-28T11:38:55.148Z,12.80
2022-12-28T11:43:55.201Z,15.20
2022-12-28T11:48:55.138Z,15.20
2022-12-28T11:53:55.132Z,11.90
2022-12-28T11:58:56.644Z,11.90
2022-12-28T12:03:55.261Z,10.10
2022-12-28T12:08:55.362Z,10.10
2022-12-28T12:13:55.472Z,11.50
2022-12-28T12:18:55.923Z,11.50
2022-12-28T12:23:55.392Z,12.10
2022-12-28T12:28:55.378Z,12.10
2022-12-28T12:33:55.176Z,11.40
2022-12-28T12:38:55.180Z,11.40
2022-12-28T12:43:55.341Z,12.20
2022-12-28T12:48:55.584Z,12.20
2022-12-28T12:53:55.364Z,10.80
2022-12-28T12:58:55.302Z,10.80
2022-12-28T13:03:55.358Z,9.90
2022-12-28T13:08:59.071Z,9.90
2022-12-28T13:13:55.731Z,12.40
2022-12-28T13:18:55.706Z,12.40
2022-12-28T13:23:55.288Z,10.30
2022-12-28T13:28:55.419Z,10.30
2022-12-28T13:33:55.396Z,9.60
2022-12-28T13:38:55.208Z,9.60
2022-12-28T13:43:55.215Z,10.20
2022-12-28T13:48:55.188Z,10.20
2022-12-28T13:53:55.234Z,11.70
2022-12-28T13:58:55.174Z,11.70
2022-12-28T14:03:55.206Z,10.00
2022-12-28T14:08:55.212Z,10.00
2022-12-28T14:13:55.213Z,10.30
2022-12-28T14:18:55.296Z,10.30
2022-12-28T14:23:55.169Z,9.40
2022-12-28T14:28:55.265Z,9.40
2022-12-28T14:33:55.268Z,11.60
2022-12-28T14:38:59.721Z,11.60
2022-12-28T14:43:55.224Z,7.80
2022-12-28T14:48:55.252Z,7.80
2022-12-28T14:53:55.518Z,8.30
2022-12-28T14:58:55.234Z,8.30
2022-12-28T15:03:55.235Z,7.60
2022-12-28T15:08:55.222Z,7.60
2022-12-28T15:13:55.248Z,8.30
2022-12-28T15:18:55.258Z,8.30
2022-12-28T15:23:55.284Z,8.30
2022-12-28T15:28:55.365Z,8.30
2022-12-28T15:33:55.217Z,9.20
2022-12-28T15:38:55.281Z,9.20
2022-12-28T15:43:55.217Z,8.60
2022-12-28T15:48:55.228Z,8.60
2022-12-28T15:53:56.378Z,6.50
2022-12-28T15:58:55.244Z,6.50
2022-12-28T16:03:55.248Z,7.30
2022-12-28T16:08:55.261Z,7.30
2022-12-28T16:13:55.280Z,10.90
2022-12-28T16:18:55.260Z,10.90
2022-12-28T16:23:55.240Z,7.70
2022-12-28T16:29:00.490Z,7.70
2022-12-28T16:33:55.267Z,10.80
2022-12-28T16:38:55.260Z,10.80
2022-12-28T16:43:55.275Z,8.40
2022-12-28T16:48:55.408Z,8.40
2022-12-28T16:53:55.264Z,10.90
2022-12-28T16:58:55.396Z,10.90
2022-12-28T17:04:00.083Z,10.40
2022-12-28T17:08:55.254Z,10.40
2022-12-28T17:13:55.298Z,9.70
2022-12-28T17:18:55.330Z,9.70
2022-12-28T17:23:57.392Z,10.00
2022-12-28T17:28:55.944Z,10.00
2022-12-28T17:33:55.691Z,10.70
2022-12-28T17:38:55.407Z,10.70
2022-12-28T17:43:55.515Z,12.00
2022-12-28T17:48:55.788Z,12.00
2022-12-28T17:53:55.932Z,9.50
2022-12-28T17:58:55.442Z,9.50
2022-12-28T18:03:55.471Z,12.00
2022-12-28T18:08:55.453Z,12.00
2022-12-28T18:13:55.767Z,11.70
2022-12-28T18:18:55.414Z,11.70
2022-12-28T18:23:55.885Z,15.60
2022-12-28T18:28:55.703Z,15.60
2022-12-28T18:38:55.760Z,14.60
2022-12-28T18:43:57.669Z,12.40
2022-12-28T18:48:55.394Z,12.40
2022-12-28T18:53:55.552Z,15.90
2022-12-28T18:58:55.311Z,15.90
2022-12-28T19:03:55.838Z,16.00
2022-12-28T19:08:55.839Z,16.00
2022-12-28T19:13:55.657Z,15.90
2022-12-28T19:18:55.698Z,15.90
2022-12-28T19:23:55.489Z,18.00
2022-12-28T19:28:55.438Z,18.00
2022-12-28T19:33:55.963Z,18.60
2022-12-28T19:38:55.477Z,18.60
2022-12-28T19:43:55.813Z,16.60
2022-12-28T19:53:55.425Z,16.20
2022-12-28T19:59:04.951Z,16.20
2022-12-28T20:03:57.053Z,21.20
2022-12-28T20:08:56.828Z,21.20
2022-12-28T20:13:55.559Z,18.40
2022-12-28T20:18:55.353Z,18.40
2022-12-28T20:23:55.343Z,19.90
2022-12-28T20:28:55.365Z,19.90
2022-12-28T20:33:55.490Z,23.30
2022-12-28T20:38:55.914Z,23.30
2022-12-28T20:43:55.372Z,20.60
2022-12-28T20:48:55.376Z,20.60
2022-12-28T20:53:55.356Z,18.50
2022-12-28T20:58:55.378Z,18.50
2022-12-28T21:03:55.456Z,19.70
2022-12-28T21:08:55.423Z,19.70
2022-12-28T21:13:55.338Z,18.20
2022-12-28T21:18:55.365Z,18.20
2022-12-28T21:23:55.337Z,19.60
2022-12-28T21:28:55.347Z,19.60
2022-12-28T21:33:55.375Z,19.10
2022-12-28T21:38:55.367Z,19.10
2022-12-28T21:43:55.450Z,44.10
2022-12-28T21:48:55.364Z,44.10
2022-12-28T21:53:55.411Z,15.90
2022-12-28T21:58:55.379Z,15.90
2022-12-28T22:03:55.384Z,16.90
2022-12-28T22:08:57.394Z,16.90
2022-12-28T22:13:55.363Z,17.20
2022-12-28T22:19:03.534Z,17.20
2022-12-28T22:23:55.391Z,15.90
2022-12-28T22:28:55.386Z,15.90
2022-12-28T22:33:55.402Z,17.10
2022-12-28T22:38:55.414Z,17.10
2022-12-28T22:43:55.396Z,14.00
2022-12-28T22:48:55.508Z,14.00
2022-12-28T22:53:55.397Z,14.70
2022-12-28T22:58:55.401Z,14.70
2022-12-28T23:03:55.405Z,14.40
2022-12-28T23:08:55.419Z,14.40
2022-12-28T23:13:55.404Z,13.00
2022-12-28T23:18:55.420Z,13.00
2022-12-28T23:23:55.390Z,13.40
2022-12-28T23:28:55.418Z,13.40
2022-12-28T23:33:55.400Z,14.80
2022-12-28T23:38:55.429Z,14.80
2022-12-28T23:43:55.400Z,15.30
2022-12-28T23:48:55.402Z,15.30
2022-12-28T23:58:55.584Z,17.50
